sensor_id;sensor_type;location;lat;lon;timestamp;pressure;altitude;pressure_sealevel;temperature;humidity
3254;BME280;1639;42.804;23.342;2023-02-14T00:02:05;75860.53;;;-148.52;86.27
3254;BME280;1639;42.804;23.342;2023-02-14T00:04:31;75872.94;;;-148.52;86.58
3254;BME280;1639;42.804;23.342;2023-02-14T00:06:56;75883.31;;;-148.52;85.42
3254;BME280;1639;42.804;23.342;2023-02-14T00:09:22;75877.09;;;-148.52;86.14
3254;BME280;1639;42.804;23.342;2023-02-14T00:11:48;75891.56;;;-148.52;87.12
3254;BME280;1639;42.804;23.342;2023-02-14T00:14:14;75883.31;;;-148.52;89.12
3254;BME280;1639;42.804;23.342;2023-02-14T00:16:58;75872.94;;;-148.52;87.03
3254;BME280;1639;42.804;23.342;2023-02-14T00:19:23;75872.94;;;-148.52;85.41
3254;BME280;1639;42.804;23.342;2023-02-14T00:21:49;75885.38;;;-148.52;85.26
3254;BME280;1639;42.804;23.342;2023-02-14T00:24:20;75893.66;;;-148.52;85.84
3254;BME280;1639;42.804;23.342;2023-02-14T00:26:46;75887.44;;;-148.52;89.35
3254;BME280;1639;42.804;23.342;2023-02-14T00:29:14;75883.31;;;-148.52;91.96
3254;BME280;1639;42.804;23.342;2023-02-14T00:31:41;75887.44;;;-148.52;95.08
3254;BME280;1639;42.804;23.342;2023-02-14T00:34:07;75879.16;;;-148.52;94.83
3254;BME280;1639;42.804;23.342;2023-02-14T00:36:34;75879.16;;;-148.52;96.68
3254;BME280;1639;42.804;23.342;2023-02-14T00:39:02;75868.81;;;-148.52;97.37
3254;BME280;1639;42.804;23.342;2023-02-14T00:41:28;75872.94;;;-148.52;97.47
3254;BME280;1639;42.804;23.342;2023-02-14T00:43:53;75877.09;;;-148.52;98.26
3254;BME280;1639;42.804;23.342;2023-02-14T00:46:20;75877.09;;;-148.52;100.00
3254;BME280;1639;42.804;23.342;2023-02-14T00:48:46;75875.03;;;-148.52;100.00
3254;BME280;1639;42.804;23.342;2023-02-14T00:51:12;75864.69;;;-148.52;100.00
3254;BME280;1639;42.804;23.342;2023-02-14T00:53:38;75877.09;;;-148.52;100.00
3254;BME280;1639;42.804;23.342;2023-02-14T00:56:03;75881.22;;;-148.52;100.00
3254;BME280;1639;42.804;23.342;2023-02-14T00:58:29;75877.09;;;-148.52;100.00
3254;BME280;1639;42.804;23.342;2023-02-14T01:00:56;75864.69;;;-148.52;100.00
3254;BME280;1639;42.804;23.342;2023-02-14T01:03:22;75881.22;;;-148.52;100.00
3254;BME280;1639;42.804;23.342;2023-02-14T01:05:48;75872.94;;;-148.52;100.00
3254;BME280;1639;42.804;23.342;2023-02-14T01:08:13;75881.22;;;-148.52;100.00
3254;BME280;1639;42.804;23.342;2023-02-14T01:10:39;75885.38;;;-148.52;100.00
3254;BME280;1639;42.804;23.342;2023-02-14T01:13:05;75875.03;;;-148.52;100.00
3254;BME280;1639;42.804;23.342;2023-02-14T01:15:31;75870.88;;;-148.52;100.00
3254;BME280;1639;42.804;23.342;2023-02-14T01:17:58;75868.81;;;-148.52;100.00
3254;BME280;1639;42.804;23.342;2023-02-14T01:20:23;75856.41;;;-148.52;100.00
3254;BME280;1639;42.804;23.342;2023-02-14T01:22:49;75856.41;;;-148.52;100.00
3254;BME280;1639;42.804;23.342;2023-02-14T01:25:15;75860.53;;;-148.52;100.00
3254;BME280;1639;42.804;23.342;2023-02-14T01:27:41;75846.03;;;-148.52;100.00
3254;BME280;1639;42.804;23.342;2023-02-14T01:30:06;75835.69;;;-148.52;100.00
3254;BME280;1639;42.804;23.342;2023-02-14T01:32:32;75829.50;;;-148.52;100.00
3254;BME280;1639;42.804;23.342;2023-02-14T01:34:58;75819.13;;;-148.52;100.00
3254;BME280;1639;42.804;23.342;2023-02-14T01:37:24;75800.50;;;-148.52;100.00
3254;BME280;1639;42.804;23.342;2023-02-14T01:39:49;75786.03;;;-148.52;100.00
3254;BME280;1639;42.804;23.342;2023-02-14T01:42:15;75786.03;;;-148.52;100.00
3254;BME280;1639;42.804;23.342;2023-02-14T01:47:09;75783.97;;;-148.52;100.00
3254;BME280;1639;42.804;23.342;2023-02-14T01:49:38;75786.03;;;-148.52;100.00
3254;BME280;1639;42.804;23.342;2023-02-14T01:52:08;75790.16;;;-148.52;100.00
3254;BME280;1639;42.804;23.342;2023-02-14T01:54:37;75771.53;;;-148.52;100.00
3254;BME280;1639;42.804;23.342;2023-02-14T01:57:07;75761.19;;;-148.52;100.00
3254;BME280;1639;42.804;23.342;2023-02-14T01:59:41;75759.13;;;-148.52;99.37
3254;BME280;1639;42.804;23.342;2023-02-14T02:02:08;75771.53;;;-148.52;96.89
3254;BME280;1639;42.804;23.342;2023-02-14T02:04:37;75773.59;;;-148.52;98.50
3254;BME280;1639;42.804;23.342;2023-02-14T02:07:08;75773.59;;;-148.52;99.82
3254;BME280;1639;42.804;23.342;2023-02-14T02:12:02;75796.38;;;-148.52;100.00
3254;BME280;1639;42.804;23.342;2023-02-14T02:14:28;75773.59;;;-148.52;100.00
3254;BME280;1639;42.804;23.342;2023-02-14T02:20:00;75757.06;;;-148.52;100.00
3254;BME280;1639;42.804;23.342;2023-02-14T02:39:20;75744.63;;;-148.52;89.71
3254;BME280;1639;42.804;23.342;2023-02-14T02:42:03;75746.69;;;-148.52;88.32
3254;BME280;1639;42.804;23.342;2023-02-14T02:44:46;75767.41;;;-148.52;87.40
3254;BME280;1639;42.804;23.342;2023-02-14T02:55:54;75781.88;;;-148.52;91.94
3254;BME280;1639;42.804;23.342;2023-02-14T02:58:56;75773.59;;;-148.52;91.14
3254;BME280;1639;42.804;23.342;2023-02-14T03:01:27;75769.47;;;-148.52;90.89
3254;BME280;1639;42.804;23.342;2023-02-14T03:03:57;75771.53;;;-148.52;92.84
3254;BME280;1639;42.804;23.342;2023-02-14T03:06:44;75765.34;;;-148.52;95.69
3254;BME280;1639;42.804;23.342;2023-02-14T03:14:34;75752.91;;;-148.52;89.98
3254;BME280;1639;42.804;23.342;2023-02-14T03:17:18;75746.69;;;-148.52;91.24
3254;BME280;1639;42.804;23.342;2023-02-14T03:20:04;75754.97;;;-148.52;91.58
3254;BME280;1639;42.804;23.342;2023-02-14T03:22:52;75765.34;;;-148.52;89.26
3254;BME280;1639;42.804;23.342;2023-02-14T03:33:55;75781.88;;;-148.52;88.38
3254;BME280;1639;42.804;23.342;2023-02-14T03:36:28;75773.59;;;-148.52;89.44
3254;BME280;1639;42.804;23.342;2023-02-14T03:39:02;75757.06;;;-148.52;91.04
3254;BME280;1639;42.804;23.342;2023-02-14T03:41:35;75754.97;;;-148.52;87.77
3254;BME280;1639;42.804;23.342;2023-02-14T03:44:05;75754.97;;;-148.52;85.39
3254;BME280;1639;42.804;23.342;2023-02-14T03:47:01;75767.41;;;-148.52;85.39
3254;BME280;1639;42.804;23.342;2023-02-14T03:49:31;75783.97;;;-148.52;81.50
3254;BME280;1639;42.804;23.342;2023-02-14T03:51:59;75808.78;;;-148.52;79.64
3254;BME280;1639;42.804;23.342;2023-02-14T03:54:27;75829.50;;;-148.52;81.75
3254;BME280;1639;42.804;23.342;2023-02-14T03:57:12;75819.13;;;-148.52;83.15
3254;BME280;1639;42.804;23.342;2023-02-14T03:59:40;75817.06;;;-148.52;83.15
3254;BME280;1639;42.804;23.342;2023-02-14T04:04:38;75812.94;;;-148.52;84.29
3254;BME280;1639;42.804;23.342;2023-02-14T04:09:35;75825.34;;;-148.52;84.65
3254;BME280;1639;42.804;23.342;2023-02-14T04:12:00;75827.41;;;-148.52;84.56
3254;BME280;1639;42.804;23.342;2023-02-14T04:14:26;75846.03;;;-148.52;84.62
3254;BME280;1639;42.804;23.342;2023-02-14T04:16:53;75841.91;;;-148.52;85.49
3254;BME280;1639;42.804;23.342;2023-02-14T04:19:38;75823.28;;;-148.52;83.44
3254;BME280;1639;42.804;23.342;2023-02-14T04:22:03;75815.00;;;-148.52;82.37
3254;BME280;1639;42.804;23.342;2023-02-14T04:24:28;75833.63;;;-148.52;83.12
3254;BME280;1639;42.804;23.342;2023-02-14T04:26:54;75827.41;;;-148.52;84.75
3254;BME280;1639;42.804;23.342;2023-02-14T04:29:34;75812.94;;;-148.52;84.82
3254;BME280;1639;42.804;23.342;2023-02-14T04:32:00;75819.13;;;-148.52;84.71
3254;BME280;1639;42.804;23.342;2023-02-14T04:34:25;75819.13;;;-148.52;83.57
3254;BME280;1639;42.804;23.342;2023-02-14T04:36:50;75821.22;;;-148.52;83.78
3254;BME280;1639;42.804;23.342;2023-02-14T04:39:16;75806.72;;;-148.52;82.93
3254;BME280;1639;42.804;23.342;2023-02-14T04:41:41;75808.78;;;-148.52;81.88
3254;BME280;1639;42.804;23.342;2023-02-14T04:44:06;75810.88;;;-148.52;80.50
3254;BME280;1639;42.804;23.342;2023-02-14T04:46:32;75817.06;;;-148.52;80.88
3254;BME280;1639;42.804;23.342;2023-02-14T04:48:57;75808.78;;;-148.52;82.66
3254;BME280;1639;42.804;23.342;2023-02-14T04:51:23;75806.72;;;-148.52;82.16
3254;BME280;1639;42.804;23.342;2023-02-14T04:53:48;75821.22;;;-148.52;81.93
3254;BME280;1639;42.804;23.342;2023-02-14T04:56:14;75823.28;;;-148.52;83.48
3254;BME280;1639;42.804;23.342;2023-02-14T04:58:39;75827.41;;;-148.52;82.85
3254;BME280;1639;42.804;23.342;2023-02-14T05:01:04;75835.69;;;-148.52;80.31
3254;BME280;1639;42.804;23.342;2023-02-14T05:03:30;75856.41;;;-148.52;80.79
3254;BME280;1639;42.804;23.342;2023-02-14T05:05:55;75856.41;;;-148.52;82.79
3254;BME280;1639;42.804;23.342;2023-02-14T05:08:21;75856.41;;;-148.52;82.95
3254;BME280;1639;42.804;23.342;2023-02-14T05:10:46;75837.75;;;-148.52;83.87
3254;BME280;1639;42.804;23.342;2023-02-14T05:13:11;75833.63;;;-148.52;84.84
3254;BME280;1639;42.804;23.342;2023-02-14T05:15:37;75831.56;;;-148.52;87.77
3254;BME280;1639;42.804;23.342;2023-02-14T05:18:02;75827.41;;;-148.52;88.89
3254;BME280;1639;42.804;23.342;2023-02-14T05:20:30;75806.72;;;-148.52;89.24
3254;BME280;1639;42.804;23.342;2023-02-14T05:22:56;75815.00;;;-148.52;90.49
3254;BME280;1639;42.804;23.342;2023-02-14T05:25:24;75810.88;;;-148.52;94.50
3254;BME280;1639;42.804;23.342;2023-02-14T05:27:49;75802.59;;;-148.52;98.76
3254;BME280;1639;42.804;23.342;2023-02-14T05:30:14;75802.59;;;-148.52;100.00
3254;BME280;1639;42.804;23.342;2023-02-14T05:32:40;75798.44;;;-148.52;100.00
3254;BME280;1639;42.804;23.342;2023-02-14T05:35:05;75788.09;;;-148.52;100.00
3254;BME280;1639;42.804;23.342;2023-02-14T05:37:31;75800.50;;;-148.52;100.00
3254;BME280;1639;42.804;23.342;2023-02-14T05:39:56;75827.41;;;-148.52;100.00
3254;BME280;1639;42.804;23.342;2023-02-14T05:42:21;75821.22;;;-148.52;100.00
3254;BME280;1639;42.804;23.342;2023-02-14T05:44:47;75823.28;;;-148.52;100.00
3254;BME280;1639;42.804;23.342;2023-02-14T05:47:13;75825.34;;;-148.52;100.00
3254;BME280;1639;42.804;23.342;2023-02-14T05:49:38;75825.34;;;-148.52;100.00
3254;BME280;1639;42.804;23.342;2023-02-14T05:52:04;75794.31;;;-148.52;100.00
3254;BME280;1639;42.804;23.342;2023-02-14T05:54:29;75790.16;;;-148.52;100.00
3254;BME280;1639;42.804;23.342;2023-02-14T05:56:54;75777.75;;;-148.52;100.00
3254;BME280;1639;42.804;23.342;2023-02-14T05:59:20;75775.69;;;-148.52;100.00
3254;BME280;1639;42.804;23.342;2023-02-14T06:01:46;75773.59;;;-148.52;100.00
3254;BME280;1639;42.804;23.342;2023-02-14T06:04:11;75781.88;;;-148.52;100.00
3254;BME280;1639;42.804;23.342;2023-02-14T06:06:37;75775.69;;;-148.52;99.48
3254;BME280;1639;42.804;23.342;2023-02-14T06:09:02;75761.19;;;-148.52;97.85
3254;BME280;1639;42.804;23.342;2023-02-14T06:11:27;75746.69;;;-148.52;96.00
3254;BME280;1639;42.804;23.342;2023-02-14T06:13:53;75736.34;;;-148.52;93.80
3254;BME280;1639;42.804;23.342;2023-02-14T06:16:18;75740.50;;;-148.52;91.92
3254;BME280;1639;42.804;23.342;2023-02-14T06:18:43;75730.16;;;-148.52;92.44
3254;BME280;1639;42.804;23.342;2023-02-14T06:21:09;75713.59;;;-148.52;91.01
3254;BME280;1639;42.804;23.342;2023-02-14T06:23:34;75703.25;;;-148.52;89.62
3254;BME280;1639;42.804;23.342;2023-02-14T06:26:00;75701.16;;;-148.52;88.78
3254;BME280;1639;42.804;23.342;2023-02-14T06:28:25;75680.47;;;-148.52;89.77
3254;BME280;1639;42.804;23.342;2023-02-14T06:30:50;75676.34;;;-148.52;89.90
3254;BME280;1639;42.804;23.342;2023-02-14T06:33:16;75657.72;;;-148.52;88.80
3254;BME280;1639;42.804;23.342;2023-02-14T06:35:41;75645.28;;;-148.52;87.61
3254;BME280;1639;42.804;23.342;2023-02-14T06:38:06;75632.88;;;-148.52;87.79
3254;BME280;1639;42.804;23.342;2023-02-14T06:40:32;75653.56;;;-148.52;93.81
3254;BME280;1639;42.804;23.342;2023-02-14T06:42:57;75643.22;;;-148.52;94.36
3254;BME280;1639;42.804;23.342;2023-02-14T06:45:23;75637.00;;;-148.52;97.54
3254;BME280;1639;42.804;23.342;2023-02-14T06:47:48;75630.81;;;-148.52;99.03
3254;BME280;1639;42.804;23.342;2023-02-14T06:50:13;75593.56;;;-148.52;97.36
3254;BME280;1639;42.804;23.342;2023-02-14T06:52:39;75574.94;;;-148.52;94.78
3254;BME280;1639;42.804;23.342;2023-02-14T06:55:06;75566.66;;;-148.52;95.31
3254;BME280;1639;42.804;23.342;2023-02-14T06:57:32;75537.69;;;-148.52;95.40
3254;BME280;1639;42.804;23.342;2023-02-14T06:59:57;75500.41;;;-148.52;93.82
3254;BME280;1639;42.804;23.342;2023-02-14T07:02:23;75477.66;;;-148.52;91.57
3254;BME280;1639;42.804;23.342;2023-02-14T07:04:48;75461.09;;;-148.52;89.50
3254;BME280;1639;42.804;23.342;2023-02-14T07:07:13;75438.34;;;-148.52;89.21
3254;BME280;1639;42.804;23.342;2023-02-14T07:09:39;75411.44;;;-148.52;88.55
3254;BME280;1639;42.804;23.342;2023-02-14T07:12:04;75394.88;;;-148.52;87.95
3254;BME280;1639;42.804;23.342;2023-02-14T07:14:31;75370.03;;;-148.52;85.13
3254;BME280;1639;42.804;23.342;2023-02-14T07:16:56;75355.56;;;-148.52;84.14
3254;BME280;1639;42.804;23.342;2023-02-14T07:19:22;75343.16;;;-148.52;85.91
3254;BME280;1639;42.804;23.342;2023-02-14T07:21:47;75322.44;;;-148.52;86.70
3254;BME280;1639;42.804;23.342;2023-02-14T07:24:13;75297.63;;;-148.52;86.99
3254;BME280;1639;42.804;23.342;2023-02-14T07:26:38;75256.22;;;-148.52;98.98
3254;BME280;1639;42.804;23.342;2023-02-14T07:29:03;75206.56;;;-148.52;100.00
3254;BME280;1639;42.804;23.342;2023-02-14T07:31:29;75179.66;;;-148.52;100.00
3254;BME280;1639;42.804;23.342;2023-02-14T07:33:54;75121.72;;;-148.52;100.00
3254;BME280;1639;42.804;23.342;2023-02-14T07:36:20;75094.81;;;-148.52;91.11
3254;BME280;1639;42.804;23.342;2023-02-14T07:38:45;75061.72;;;-148.52;90.93
3254;BME280;1639;42.804;23.342;2023-02-14T07:41:10;75053.44;;;-148.52;90.29
3254;BME280;1639;42.804;23.342;2023-02-14T07:43:36;75057.56;;;-148.52;87.67
3254;BME280;1639;42.804;23.342;2023-02-14T07:46:02;75041.03;;;-148.52;86.58
3254;BME280;1639;42.804;23.342;2023-02-14T07:48:27;75028.59;;;-148.52;84.31
3254;BME280;1639;42.804;23.342;2023-02-14T07:50:53;75024.47;;;-148.52;84.68
3254;BME280;1639;42.804;23.342;2023-02-14T07:53:21;75003.78;;;-148.52;84.14
3254;BME280;1639;42.804;23.342;2023-02-14T07:55:48;74993.44;;;-148.52;81.85
3254;BME280;1639;42.804;23.342;2023-02-14T07:58:14;74974.81;;;-148.52;81.13
3254;BME280;1639;42.804;23.342;2023-02-14T08:00:39;74937.56;;;-148.52;78.72
3254;BME280;1639;42.804;23.342;2023-02-14T08:03:05;74949.97;;;-148.52;74.93
3254;BME280;1639;42.804;23.342;2023-02-14T08:05:30;74935.50;;;-148.52;75.13
3254;BME280;1639;42.804;23.342;2023-02-14T08:07:55;74941.69;;;-148.52;74.52
3254;BME280;1639;42.804;23.342;2023-02-14T08:10:21;74966.53;;;-148.52;74.01
3254;BME280;1639;42.804;23.342;2023-02-14T08:12:46;74985.16;;;-148.52;74.01
3254;BME280;1639;42.804;23.342;2023-02-14T08:15:29;74989.28;;;-148.52;75.25
3254;BME280;1639;42.804;23.342;2023-02-14T08:18:14;75007.91;;;-148.52;74.75
3254;BME280;1639;42.804;23.342;2023-02-14T08:20:39;75012.06;;;-148.52;75.61
3254;BME280;1639;42.804;23.342;2023-02-14T08:23:05;75005.84;;;-148.52;75.73
3254;BME280;1639;42.804;23.342;2023-02-14T08:25:30;74987.22;;;-148.52;74.33
3254;BME280;1639;42.804;23.342;2023-02-14T08:27:55;74983.06;;;-148.52;72.89
3254;BME280;1639;42.804;23.342;2023-02-14T08:30:22;74966.53;;;-148.52;72.20
3254;BME280;1639;42.804;23.342;2023-02-14T08:32:48;74921.00;;;-148.52;71.11
3254;BME280;1639;42.804;23.342;2023-02-14T08:35:13;74871.34;;;-148.52;68.79
3254;BME280;1639;42.804;23.342;2023-02-14T08:37:38;74865.13;;;-148.52;67.48
3254;BME280;1639;42.804;23.342;2023-02-14T08:40:04;74887.91;;;-148.52;67.59
3254;BME280;1639;42.804;23.342;2023-02-14T08:42:31;74842.38;;;-148.52;66.41
3254;BME280;1639;42.804;23.342;2023-02-14T08:44:56;74838.25;;;-148.52;65.35
3254;BME280;1639;42.804;23.342;2023-02-14T08:47:22;74827.88;;;-148.52;66.53
3254;BME280;1639;42.804;23.342;2023-02-14T08:49:47;74803.06;;;-148.52;65.27
3254;BME280;1639;42.804;23.342;2023-02-14T08:52:13;74769.94;;;-148.52;64.09
3254;BME280;1639;42.804;23.342;2023-02-14T08:54:38;74769.94;;;-148.52;63.80
3254;BME280;1639;42.804;23.342;2023-02-14T08:57:03;74798.91;;;-148.52;63.41
3254;BME280;1639;42.804;23.342;2023-02-14T08:59:29;74767.88;;;-148.52;63.36
3254;BME280;1639;42.804;23.342;2023-02-14T09:01:54;74780.31;;;-148.52;63.01
3254;BME280;1639;42.804;23.342;2023-02-14T09:04:20;74821.69;;;-148.52;63.73
3254;BME280;1639;42.804;23.342;2023-02-14T09:06:45;74819.63;;;-148.52;63.95
3254;BME280;1639;42.804;23.342;2023-02-14T09:09:10;74809.28;;;-148.52;64.18
3254;BME280;1639;42.804;23.342;2023-02-14T09:11:36;74780.31;;;-148.52;63.72
3254;BME280;1639;42.804;23.342;2023-02-14T09:14:01;74790.66;;;-148.52;63.22
3254;BME280;1639;42.804;23.342;2023-02-14T09:16:27;74838.25;;;-148.52;63.80
3254;BME280;1639;42.804;23.342;2023-02-14T09:18:52;74840.31;;;-148.52;64.89
3254;BME280;1639;42.804;23.342;2023-02-14T09:21:24;74846.50;;;-148.52;64.97
3254;BME280;1639;42.804;23.342;2023-02-14T09:23:50;74887.91;;;-148.52;65.18
3254;BME280;1639;42.804;23.342;2023-02-14T09:26:16;74896.19;;;-148.52;66.40
3254;BME280;1639;42.804;23.342;2023-02-14T09:28:42;74900.31;;;-148.52;66.34
3254;BME280;1639;42.804;23.342;2023-02-14T09:31:09;74887.91;;;-148.52;66.37
3254;BME280;1639;42.804;23.342;2023-02-14T09:33:35;74852.72;;;-148.52;65.94
3254;BME280;1639;42.804;23.342;2023-02-14T09:36:00;74871.34;;;-148.52;65.50
3254;BME280;1639;42.804;23.342;2023-02-14T09:38:38;74834.09;;;-148.52;65.60
3254;BME280;1639;42.804;23.342;2023-02-14T09:41:05;74834.09;;;-148.52;64.69
3254;BME280;1639;42.804;23.342;2023-02-14T09:43:38;74834.09;;;-148.52;64.07
3254;BME280;1639;42.804;23.342;2023-02-14T09:46:10;74832.03;;;-148.52;64.32
3254;BME280;1639;42.804;23.342;2023-02-14T09:48:42;74846.50;;;-148.52;64.56
3254;BME280;1639;42.804;23.342;2023-02-14T09:51:14;74838.25;;;-148.52;64.83
3254;BME280;1639;42.804;23.342;2023-02-14T09:54:12;74784.44;;;-148.52;64.21
3254;BME280;1639;42.804;23.342;2023-02-14T09:56:58;74794.78;;;-148.52;63.03
3254;BME280;1639;42.804;23.342;2023-02-14T09:59:34;74786.50;;;-148.52;63.41
3254;BME280;1639;42.804;23.342;2023-02-14T10:04:39;74755.47;;;-148.52;62.25
3254;BME280;1639;42.804;23.342;2023-02-14T10:07:51;74740.97;;;-148.52;62.15
3254;BME280;1639;42.804;23.342;2023-02-14T10:11:01;74722.38;;;-148.52;61.27
3254;BME280;1639;42.804;23.342;2023-02-14T10:13:41;74718.22;;;-148.52;61.36
3254;BME280;1639;42.804;23.342;2023-02-14T10:16:17;74720.28;;;-148.52;61.02
3254;BME280;1639;42.804;23.342;2023-02-14T10:18:49;74705.81;;;-148.52;61.14
3254;BME280;1639;42.804;23.342;2023-02-14T10:21:39;74734.78;;;-148.52;60.95
3254;BME280;1639;42.804;23.342;2023-02-14T10:24:35;74749.25;;;-148.52;61.73
3254;BME280;1639;42.804;23.342;2023-02-14T10:27:14;74749.25;;;-148.52;61.80
3254;BME280;1639;42.804;23.342;2023-02-14T10:29:48;74755.47;;;-148.52;61.15
3254;BME280;1639;42.804;23.342;2023-02-14T10:32:19;74765.81;;;-148.52;61.92
3254;BME280;1639;42.804;23.342;2023-02-14T10:34:50;74780.31;;;-148.52;62.35
3254;BME280;1639;42.804;23.342;2023-02-14T10:40:43;74794.78;;;-148.52;62.83
3254;BME280;1639;42.804;23.342;2023-02-14T10:48:50;74803.06;;;-148.52;63.74
3254;BME280;1639;42.804;23.342;2023-02-14T10:51:23;74784.44;;;-148.52;63.61
3254;BME280;1639;42.804;23.342;2023-02-14T10:54:17;74788.56;;;-148.52;63.30
3254;BME280;1639;42.804;23.342;2023-02-14T11:02:20;74780.31;;;-148.52;63.74
3254;BME280;1639;42.804;23.342;2023-02-14T11:04:47;74776.16;;;-148.52;63.70
3254;BME280;1639;42.804;23.342;2023-02-14T11:07:18;74786.50;;;-148.52;63.09
3254;BME280;1639;42.804;23.342;2023-02-14T11:09:44;74801.00;;;-148.52;63.28
3254;BME280;1639;42.804;23.342;2023-02-14T11:12:10;74815.47;;;-148.52;62.96
3254;BME280;1639;42.804;23.342;2023-02-14T11:14:38;74821.69;;;-148.52;62.55
3254;BME280;1639;42.804;23.342;2023-02-14T11:17:29;74827.88;;;-148.52;62.90
3254;BME280;1639;42.804;23.342;2023-02-14T11:20:00;74838.25;;;-148.52;62.57
3254;BME280;1639;42.804;23.342;2023-02-14T11:22:31;74829.97;;;-148.52;62.61
3254;BME280;1639;42.804;23.342;2023-02-14T11:25:18;74827.88;;;-148.52;62.27
3254;BME280;1639;42.804;23.342;2023-02-14T11:27:46;74821.69;;;-148.52;62.18
3254;BME280;1639;42.804;23.342;2023-02-14T11:30:33;74827.88;;;-148.52;62.43
3254;BME280;1639;42.804;23.342;2023-02-14T11:33:00;74829.97;;;-148.52;62.19
3254;BME280;1639;42.804;23.342;2023-02-14T11:35:28;74809.28;;;-148.52;62.42
3254;BME280;1639;42.804;23.342;2023-02-14T11:38:00;74811.34;;;-148.52;61.88
3254;BME280;1639;42.804;23.342;2023-02-14T11:40:29;74798.91;;;-148.52;61.56
3254;BME280;1639;42.804;23.342;2023-02-14T11:43:01;74786.50;;;-148.52;60.99
3254;BME280;1639;42.804;23.342;2023-02-14T11:45:44;74763.75;;;-148.52;60.97
3254;BME280;1639;42.804;23.342;2023-02-14T11:48:23;74759.59;;;-148.52;60.74
3254;BME280;1639;42.804;23.342;2023-02-14T11:50:55;74738.91;;;-148.52;60.36
3254;BME280;1639;42.804;23.342;2023-02-14T11:53:24;74705.81;;;-148.52;59.67
3254;BME280;1639;42.804;23.342;2023-02-14T11:55:57;74691.31;;;-148.52;58.70
3254;BME280;1639;42.804;23.342;2023-02-14T11:59:00;74666.50;;;-148.52;57.72
3254;BME280;1639;42.804;23.342;2023-02-14T12:01:33;74701.66;;;-148.52;57.72
3254;BME280;1639;42.804;23.342;2023-02-14T12:04:05;74714.09;;;-148.52;58.27
3254;BME280;1639;42.804;23.342;2023-02-14T12:06:33;74722.38;;;-148.52;58.58
3254;BME280;1639;42.804;23.342;2023-02-14T12:11:56;74720.28;;;-148.52;58.46
3254;BME280;1639;42.804;23.342;2023-02-14T12:14:28;74709.94;;;-148.52;58.12
3254;BME280;1639;42.804;23.342;2023-02-14T12:22:14;74722.38;;;-148.52;58.47
3254;BME280;1639;42.804;23.342;2023-02-14T12:27:25;74709.94;;;-148.52;58.49
3254;BME280;1639;42.804;23.342;2023-02-14T12:30:03;74730.63;;;-148.52;58.01
3254;BME280;1639;42.804;23.342;2023-02-14T12:32:32;74732.72;;;-148.52;58.33
3254;BME280;1639;42.804;23.342;2023-02-14T12:48:46;74743.06;;;-148.52;58.94
3254;BME280;1639;42.804;23.342;2023-02-14T12:51:27;74747.19;;;-148.52;59.21
3254;BME280;1639;42.804;23.342;2023-02-14T13:09:03;74734.78;;;-148.52;58.91
3254;BME280;1639;42.804;23.342;2023-02-14T13:23:09;74743.06;;;-148.52;60.58
3254;BME280;1639;42.804;23.342;2023-02-14T13:25:40;74738.91;;;-148.52;60.04
3254;BME280;1639;42.804;23.342;2023-02-14T13:28:14;74734.78;;;-148.52;60.18
3254;BME280;1639;42.804;23.342;2023-02-14T13:30:40;74743.06;;;-148.52;60.08
3254;BME280;1639;42.804;23.342;2023-02-14T13:33:34;74736.84;;;-148.52;60.66
3254;BME280;1639;42.804;23.342;2023-02-14T13:36:06;74728.56;;;-148.52;60.87
3254;BME280;1639;42.804;23.342;2023-02-14T13:38:37;74722.38;;;-148.52;60.70
3254;BME280;1639;42.804;23.342;2023-02-14T13:41:06;74734.78;;;-148.52;61.05
3254;BME280;1639;42.804;23.342;2023-02-14T13:46:46;74726.50;;;-148.52;61.30
3254;BME280;1639;42.804;23.342;2023-02-14T13:49:23;74743.06;;;-148.52;60.62
3254;BME280;1639;42.804;23.342;2023-02-14T13:51:54;74751.34;;;-148.52;61.11
3254;BME280;1639;42.804;23.342;2023-02-14T13:56:45;74767.88;;;-148.52;61.29
3254;BME280;1639;42.804;23.342;2023-02-14T13:59:30;74761.69;;;-148.52;61.21
3254;BME280;1639;42.804;23.342;2023-02-14T14:04:51;74765.81;;;-148.52;62.07
3254;BME280;1639;42.804;23.342;2023-02-14T14:07:22;74761.69;;;-148.52;61.80
3254;BME280;1639;42.804;23.342;2023-02-14T14:20:51;74761.69;;;-148.52;61.87
3254;BME280;1639;42.804;23.342;2023-02-14T14:23:34;74755.47;;;-148.52;62.31
3254;BME280;1639;42.804;23.342;2023-02-14T14:26:01;74751.34;;;-148.52;61.79
3254;BME280;1639;42.804;23.342;2023-02-14T14:28:30;74743.06;;;-148.52;62.13
3254;BME280;1639;42.804;23.342;2023-02-14T14:30:56;74736.84;;;-148.52;61.94
3254;BME280;1639;42.804;23.342;2023-02-14T14:33:31;74745.13;;;-148.52;61.84
3254;BME280;1639;42.804;23.342;2023-02-14T14:35:59;74761.69;;;-148.52;62.30
3254;BME280;1639;42.804;23.342;2023-02-14T14:38:25;74751.34;;;-148.52;62.32
3254;BME280;1639;42.804;23.342;2023-02-14T14:40:52;74761.69;;;-148.52;62.36
3254;BME280;1639;42.804;23.342;2023-02-14T14:43:34;74753.41;;;-148.52;62.44
3254;BME280;1639;42.804;23.342;2023-02-14T14:46:01;74759.59;;;-148.52;62.42
3254;BME280;1639;42.804;23.342;2023-02-14T14:50:53;74759.59;;;-148.52;62.71
3254;BME280;1639;42.804;23.342;2023-02-14T14:53:23;74763.75;;;-148.52;62.69
3254;BME280;1639;42.804;23.342;2023-02-14T14:55:50;74763.75;;;-148.52;62.85
3254;BME280;1639;42.804;23.342;2023-02-14T14:58:46;74763.75;;;-148.52;63.09
3254;BME280;1639;42.804;23.342;2023-02-14T15:01:28;74769.94;;;-148.52;62.65
3254;BME280;1639;42.804;23.342;2023-02-14T15:03:54;74769.94;;;-148.52;62.84
3254;BME280;1639;42.804;23.342;2023-02-14T15:06:20;74780.31;;;-148.52;63.17
3254;BME280;1639;42.804;23.342;2023-02-14T15:08:47;74763.75;;;-148.52;62.92
3254;BME280;1639;42.804;23.342;2023-02-14T15:11:26;74774.09;;;-148.52;63.10
3254;BME280;1639;42.804;23.342;2023-02-14T15:14:20;74778.22;;;-148.52;63.44
3254;BME280;1639;42.804;23.342;2023-02-14T15:16:50;74784.44;;;-148.52;63.13
3254;BME280;1639;42.804;23.342;2023-02-14T15:19:23;74782.38;;;-148.52;63.36
3254;BME280;1639;42.804;23.342;2023-02-14T15:21:55;74776.16;;;-148.52;63.28
3254;BME280;1639;42.804;23.342;2023-02-14T15:24:21;74788.56;;;-148.52;63.24